Time;durP1;ratioP1;P1;durP2;ratioP2;P2;SDS_P1;SDS_P2;PMS_P1;PMS_P2;Temp;Humidity;BMP_temperature;BMP_pressure;BME280_temperature;BME280_humidity;BME280_pressure;Samples;Min_cycle;Max_cycle;Signal;HPM_P1;HPM_P2
2023/06/03 00:01:03;;;;;;;10.20;4.47;;;;;;;13.40;56.95;95636.19;6315562;22;20889;-85
2023/06/03 00:03:31;;;;;;;9.37;4.50;;;;;;;13.33;57.24;95636.81;6323015;22;20168;-84
2023/06/03 00:05:58;;;;;;;8.47;4.47;;;;;;;13.40;57.18;95636.19;6296977;22;20148;-84
2023/06/03 00:08:23;;;;;;;10.20;4.47;;;;;;;13.33;57.15;95636.00;6288229;22;20179;-85
2023/06/03 00:10:48;;;;;;;7.77;4.50;;;;;;;13.35;57.14;95641.09;6311935;22;20152;-83
2023/06/03 00:13:14;;;;;;;9.93;4.30;;;;;;;13.35;57.31;95643.69;6310809;22;20207;-84
2023/06/03 00:15:39;;;;;;;12.63;4.03;;;;;;;13.33;57.43;95636.81;6310731;22;20155;-83
2023/06/03 00:18:05;;;;;;;7.63;4.10;;;;;;;13.28;57.91;95639.13;6309378;22;20144;-83
2023/06/03 00:20:33;;;;;;;8.03;4.20;;;;;;;13.15;58.32;95640.53;6282913;22;20164;-84
2023/06/03 00:22:58;;;;;;;9.30;4.30;;;;;;;12.93;58.78;95636.75;6283615;22;20171;-84
2023/06/03 00:25:23;;;;;;;9.63;4.50;;;;;;;13.20;58.08;95636.50;6283584;22;20204;-84
2023/06/03 00:27:49;;;;;;;6.80;4.50;;;;;;;13.10;58.43;95635.81;6256494;22;20305;-83
2023/06/03 00:30:14;;;;;;;13.93;4.87;;;;;;;13.07;59.09;95633.50;6310519;22;20194;-83
2023/06/03 00:32:40;;;;;;;10.67;4.67;;;;;;;12.95;59.53;95629.59;6283787;22;20179;-84
2023/06/03 00:35:05;;;;;;;10.07;4.53;;;;;;;13.00;59.15;95629.94;6285723;22;20152;-84
2023/06/03 00:37:31;;;;;;;7.90;4.87;;;;;;;13.00;58.99;95629.94;6312879;22;20181;-84
2023/06/03 00:39:56;;;;;;;9.07;4.60;;;;;;;12.98;59.70;95631.88;6286089;22;20156;-84
2023/06/03 00:42:21;;;;;;;10.10;4.20;;;;;;;12.98;59.58;95630.06;6313141;22;20167;-84
2023/06/03 00:44:47;;;;;;;10.37;4.33;;;;;;;12.87;60.18;95625.16;6285703;22;20152;-84
2023/06/03 00:47:14;;;;;;;10.13;4.27;;;;;;;12.74;60.31;95628.25;6284648;22;20167;-84
2023/06/03 00:49:39;;;;;;;8.30;4.80;;;;;;;12.82;59.96;95631.84;6284635;22;20233;-84
2023/06/03 00:52:05;;;;;;;11.23;4.87;;;;;;;12.65;60.94;95625.78;6256754;22;20176;-83
2023/06/03 00:54:31;;;;;;;6.67;3.73;;;;;;;12.79;60.53;95621.72;6256691;22;20158;-85
2023/06/03 00:56:57;;;;;;;7.90;4.60;;;;;;;12.66;60.84;95615.19;6281127;22;20152;-84
2023/06/03 00:59:22;;;;;;;9.63;4.57;;;;;;;12.66;61.06;95616.97;6283512;22;20171;-83
2023/06/03 01:01:47;;;;;;;10.73;4.50;;;;;;;12.65;61.04;95604.94;6311270;22;20156;-83
2023/06/03 01:04:16;;;;;;;8.73;4.33;;;;;;;12.62;61.22;95608.66;6311933;22;20168;-82
2023/06/03 01:07:00;;;;;;;11.83;4.67;;;;;;;12.56;61.36;95609.31;6283825;22;20137;-84
2023/06/03 01:09:46;;;;;;;9.00;4.37;;;;;;;12.56;61.43;95605.88;6309502;22;20203;-82
2023/06/03 01:12:31;;;;;;;10.03;4.27;;;;;;;12.58;62.05;95614.34;6283740;22;20510;-82
2023/06/03 01:15:20;;;;;;;11.50;4.27;;;;;;;12.56;61.63;95614.50;6311524;22;20152;-84
2023/06/03 01:17:47;;;;;;;6.13;4.53;;;;;;;12.55;61.60;95609.47;6284883;22;20568;-84
2023/06/03 01:20:13;;;;;;;7.27;4.13;;;;;;;12.54;61.60;95608.63;6278690;22;20478;-83
2023/06/03 01:22:43;;;;;;;10.10;4.50;;;;;;;12.50;62.06;95612.53;6303662;22;20180;-82
2023/06/03 01:25:15;;;;;;;9.17;4.03;;;;;;;12.57;62.06;95608.31;6304887;22;20206;-81
2023/06/03 01:27:41;;;;;;;8.27;5.07;;;;;;;12.43;61.72;95601.09;6277792;22;20480;-82
2023/06/03 01:30:09;;;;;;;8.60;4.23;;;;;;;12.37;62.85;95613.00;6305321;22;20605;-83
2023/06/03 01:32:38;;;;;;;12.40;4.63;;;;;;;12.31;62.61;95611.00;6278190;22;20245;-82
2023/06/03 01:35:06;;;;;;;7.23;4.47;;;;;;;12.41;62.27;95608.28;6304888;22;20503;-81
2023/06/03 01:37:32;;;;;;;13.10;4.80;;;;;;;12.42;62.44;95607.28;6302944;22;20228;-84
2023/06/03 01:40:00;;;;;;;7.50;4.50;;;;;;;12.38;63.01;95604.19;6280528;22;20180;-83
2023/06/03 01:42:25;;;;;;;8.97;4.00;;;;;;;12.32;62.71;95606.59;6303823;22;20176;-83
2023/06/03 01:44:52;;;;;;;10.53;4.27;;;;;;;12.23;63.69;95610.97;6304353;22;20473;-83
2023/06/03 01:47:17;;;;;;;8.97;4.33;;;;;;;12.29;63.46;95612.13;6278408;22;20153;-83
2023/06/03 01:49:44;;;;;;;8.87;4.67;;;;;;;12.24;63.76;95603.97;6277801;22;20503;-82
2023/06/03 01:52:09;;;;;;;10.80;4.70;;;;;;;12.22;63.63;95598.91;6278163;22;20196;-83
2023/06/03 01:54:35;;;;;;;11.60;4.70;;;;;;;12.22;62.94;95611.13;6279423;22;20491;-82
2023/06/03 01:57:01;;;;;;;9.83;4.70;;;;;;;12.18;63.47;95618.41;6276737;22;20598;-83
2023/06/03 01:59:26;;;;;;;9.80;4.40;;;;;;;12.20;63.10;95603.47;6278954;22;20145;-82
2023/06/03 02:01:53;;;;;;;7.67;4.13;;;;;;;12.36;62.68;95605.31;6277871;22;20214;-83
2023/06/03 02:04:18;;;;;;;8.33;4.60;;;;;;;12.30;62.66;95603.34;6304386;22;20213;-82
2023/06/03 02:06:51;;;;;;;10.27;4.67;;;;;;;12.30;62.88;95604.16;6287267;22;20376;-82
2023/06/03 02:09:17;;;;;;;10.03;4.77;;;;;;;12.19;63.37;95604.41;6330014;22;20161;-80
2023/06/03 02:11:43;;;;;;;8.37;4.13;;;;;;;12.24;63.14;95596.16;6303903;22;20250;-81
2023/06/03 02:14:09;;;;;;;8.57;4.40;;;;;;;12.28;63.14;95592.25;6299662;22;20453;-81
2023/06/03 02:16:34;;;;;;;9.90;4.53;;;;;;;12.19;63.35;95599.22;6277168;22;20170;-81
2023/06/03 02:19:03;;;;;;;10.83;4.43;;;;;;;12.08;63.49;95592.50;6284971;22;20225;-82
2023/06/03 02:21:28;;;;;;;7.73;4.43;;;;;;;12.17;63.80;95601.16;6282706;22;20144;-82
2023/06/03 02:23:54;;;;;;;12.97;4.80;;;;;;;12.10;63.64;95598.38;6282074;22;20180;-83
2023/06/03 02:26:19;;;;;;;12.03;4.07;;;;;;;12.14;63.61;95591.88;6281013;22;20151;-80
2023/06/03 02:28:45;;;;;;;8.77;4.40;;;;;;;12.12;63.85;95593.03;6282247;22;20617;-80
2023/06/03 02:31:10;;;;;;;13.90;4.30;;;;;;;12.02;64.13;95598.34;6281167;22;20163;-83
2023/06/03 02:33:35;;;;;;;11.43;4.47;;;;;;;12.04;64.05;95600.78;6280434;22;20194;-83
2023/06/03 02:36:01;;;;;;;9.33;4.53;;;;;;;12.00;64.31;95599.44;6282153;22;20159;-81
2023/06/03 02:38:26;;;;;;;11.40;4.90;;;;;;;12.07;63.82;95600.47;6309592;22;20601;-82
2023/06/03 02:40:51;;;;;;;10.97;4.93;;;;;;;11.97;64.50;95590.19;6308851;22;20148;-83
2023/06/03 02:43:17;;;;;;;8.37;4.03;;;;;;;12.02;64.44;95593.13;6309436;22;20253;-83
2023/06/03 02:45:42;;;;;;;12.23;4.73;;;;;;;11.93;64.63;95595.81;6256346;22;20160;-82
2023/06/03 02:48:07;;;;;;;10.90;4.17;;;;;;;11.92;64.68;95592.41;6280889;22;20167;-83
2023/06/03 02:50:33;;;;;;;10.50;4.23;;;;;;;11.80;65.57;95593.66;6282010;22;20159;-83
2023/06/03 02:52:58;;;;;;;10.80;4.80;;;;;;;11.85;65.51;95594.84;6307096;22;20652;-83
2023/06/03 02:55:27;;;;;;;7.70;4.60;;;;;;;11.62;66.40;95588.47;6282059;22;20151;-82
2023/06/03 02:57:52;;;;;;;10.10;4.57;;;;;;;11.67;66.30;95595.84;6280823;22;20152;-84
2023/06/03 03:00:18;;;;;;;8.67;4.30;;;;;;;11.59;66.68;95591.41;6282184;22;20197;-83
2023/06/03 03:02:44;;;;;;;8.80;5.03;;;;;;;11.52;67.56;95596.38;6309987;22;20168;-83
2023/06/03 03:05:10;;;;;;;10.13;4.63;;;;;;;11.49;67.51;95591.50;6309845;22;20649;-84
2023/06/03 03:07:36;;;;;;;12.07;4.97;;;;;;;11.53;66.66;95595.41;6256938;22;20171;-82
2023/06/03 03:10:04;;;;;;;9.53;4.20;;;;;;;11.47;67.19;95598.59;6281831;22;20162;-83
2023/06/03 03:12:29;;;;;;;11.77;4.77;;;;;;;11.47;67.27;95601.22;6309212;22;20171;-84
2023/06/03 03:14:55;;;;;;;10.60;4.40;;;;;;;11.44;67.36;95604.13;6308601;22;20155;-83
2023/06/03 03:17:20;;;;;;;12.00;4.77;;;;;;;11.45;67.85;95594.53;6281964;22;20155;-82
2023/06/03 03:19:45;;;;;;;10.20;4.57;;;;;;;11.44;67.71;95604.13;6310840;22;20179;-82
2023/06/03 03:22:10;;;;;;;9.30;4.80;;;;;;;11.41;67.75;95606.22;6255621;22;20179;-82
2023/06/03 03:24:36;;;;;;;8.00;4.43;;;;;;;11.46;67.54;95607.38;6283167;22;20147;-83
2023/06/03 03:27:01;;;;;;;10.33;4.77;;;;;;;11.44;67.71;95603.31;6256547;22;20247;-82
2023/06/03 03:29:26;;;;;;;10.67;4.80;;;;;;;11.35;68.95;95605.84;6309667;22;20191;-83
2023/06/03 03:31:53;;;;;;;10.10;4.60;;;;;;;11.39;68.36;95600.31;6310059;22;20152;-83
2023/06/03 03:34:18;;;;;;;8.77;4.30;;;;;;;11.45;68.32;95604.94;6283032;22;20147;-83
2023/06/03 03:36:46;;;;;;;11.37;5.07;;;;;;;11.33;69.10;95604.38;6282548;22;20162;-83
2023/06/03 03:39:11;;;;;;;7.30;4.57;;;;;;;11.42;68.09;95595.66;6312392;22;20148;-82
2023/06/03 03:41:42;;;;;;;9.90;4.90;;;;;;;11.46;68.25;95598.75;6283670;22;20152;-83
2023/06/03 03:44:07;;;;;;;9.37;4.50;;;;;;;11.45;68.39;95597.13;6310381;22;20531;-83
2023/06/03 03:46:32;;;;;;;7.67;4.70;;;;;;;11.45;68.74;95605.75;6309244;22;20156;-83
2023/06/03 03:48:58;;;;;;;12.00;5.03;;;;;;;11.63;68.15;95608.31;6283044;22;20172;-83
2023/06/03 03:51:23;;;;;;;12.07;4.50;;;;;;;11.61;68.10;95600.66;6256745;22;20166;-83
2023/06/03 03:53:48;;;;;;;10.03;4.53;;;;;;;12.62;64.50;95600.84;6309953;22;20202;-83
2023/06/03 03:56:18;;;;;;;13.57;4.13;;;;;;;13.41;61.68;95609.94;6282381;22;20620;-82
2023/06/03 03:58:44;;;;;;;8.17;4.57;;;;;;;14.15;58.05;95606.25;6284124;22;20151;-82
2023/06/03 04:01:15;;;;;;;10.13;3.80;;;;;;;15.39;54.13;95599.41;6284943;22;20478;-82
2023/06/03 04:03:41;;;;;;;10.90;3.70;;;;;;;15.62;53.54;95607.22;6283598;22;20168;-83
2023/06/03 04:06:08;;;;;;;7.23;3.87;;;;;;;15.74;52.89;95611.06;6307979;22;20244;-84
2023/06/03 04:08:46;;;;;;;7.88;3.65;;;;;;;16.27;50.29;95606.59;6310282;22;20664;-83
2023/06/03 04:11:27;;;;;;;9.18;3.88;;;;;;;17.56;47.10;95617.13;6282877;22;20560;-84
2023/06/03 04:13:53;;;;;;;7.20;3.85;;;;;;;17.62;46.69;95614.75;6282930;22;20176;-84
2023/06/03 04:16:46;;;;;;;8.85;4.07;;;;;;;18.55;44.84;95613.56;6256669;22;20160;-84
2023/06/03 04:19:32;;;;;;;11.10;3.70;;;;;;;18.38;45.28;95627.03;6282894;22;20178;-83
2023/06/03 04:22:02;;;;;;;10.43;3.90;;;;;;;18.61;42.78;95623.31;6310956;22;20788;-84
2023/06/03 04:24:28;;;;;;;7.85;3.42;;;;;;;18.73;43.27;95621.78;6311565;22;20224;-84
2023/06/03 04:26:53;;;;;;;5.63;3.53;;;;;;;20.13;40.24;95622.81;6310759;22;20189;-84
2023/06/03 04:29:19;;;;;;;10.68;3.47;;;;;;;20.09;39.30;95619.78;6311174;22;20164;-83
2023/06/03 04:31:44;;;;;;;11.68;3.55;;;;;;;20.35;39.35;95619.72;6257193;22;20167;-83
2023/06/03 04:34:10;;;;;;;8.60;3.60;;;;;;;21.68;35.50;95627.06;6285960;22;20163;-82
2023/06/03 04:36:35;;;;;;;7.00;3.58;;;;;;;22.11;36.17;95626.34;6311626;22;20148;-83
2023/06/03 04:39:04;;;;;;;11.27;4.32;;;;;;;22.60;35.08;95634.19;6286435;22;20178;-83
2023/06/03 04:41:32;;;;;;;7.75;3.70;;;;;;;22.73;34.30;95630.59;6284652;22;20152;-83
2023/06/03 04:43:59;;;;;;;7.93;3.72;;;;;;;22.74;33.32;95626.91;6311535;22;20271;-82
2023/06/03 04:46:29;;;;;;;8.38;3.50;;;;;;;24.14;32.13;95623.97;6310392;22;20152;-83
2023/06/03 04:48:55;;;;;;;6.63;3.63;;;;;;;23.07;33.80;95631.84;6285763;22;20490;-83
2023/06/03 04:51:22;;;;;;;9.07;3.55;;;;;;;22.77;34.54;95633.59;6309802;22;20144;-83
2023/06/03 04:53:48;;;;;;;8.60;3.53;;;;;;;23.78;32.35;95624.97;6312154;22;20172;-83
2023/06/03 04:56:13;;;;;;;10.95;3.58;;;;;;;24.31;31.26;95624.06;6311413;22;20618;-82
2023/06/03 04:58:42;;;;;;;8.52;3.33;;;;;;;23.75;32.40;95625.41;6284337;22;20148;-82
2023/06/03 05:01:08;;;;;;;7.68;3.75;;;;;;;22.59;34.82;95631.75;6284839;22;20159;-82
2023/06/03 05:03:35;;;;;;;9.75;4.07;;;;;;;22.97;33.45;95622.78;6311600;22;20192;-82
2023/06/03 05:06:01;;;;;;;6.97;3.10;;;;;;;24.33;30.67;95616.72;6311181;22;20152;-82
2023/06/03 05:08:26;;;;;;;5.53;3.40;;;;;;;23.42;32.84;95617.94;6312102;22;20637;-82
2023/06/03 05:10:52;;;;;;;11.18;3.90;;;;;;;23.43;32.52;95623.00;6311609;22;20156;-82
2023/06/03 05:13:17;;;;;;;7.28;3.83;;;;;;;24.22;31.44;95615.66;6311631;22;20212;-84
2023/06/03 05:15:42;;;;;;;7.68;3.33;;;;;;;24.84;30.44;95623.09;6312181;22;20163;-82
2023/06/03 05:18:08;;;;;;;8.88;3.97;;;;;;;25.43;29.89;95621.06;6284169;22;20155;-83
2023/06/03 05:20:33;;;;;;;6.32;3.83;;;;;;;25.98;28.86;95625.75;6284216;22;20176;-82
2023/06/03 05:22:58;;;;;;;10.63;3.33;;;;;;;25.84;29.50;95621.78;6285482;22;20223;-83
2023/06/03 05:25:24;;;;;;;11.07;3.35;;;;;;;25.27;30.40;95621.84;6312904;22;20361;-82
2023/06/03 05:27:49;;;;;;;9.88;3.38;;;;;;;25.63;30.11;95620.63;6284145;22;20600;-81
2023/06/03 05:30:15;;;;;;;6.60;3.30;;;;;;;27.36;26.80;95623.88;6282711;22;20160;-80
2023/06/03 05:32:41;;;;;;;6.28;3.47;;;;;;;27.07;27.20;95630.50;6256283;22;20172;-83
2023/06/03 05:35:07;;;;;;;7.70;3.70;;;;;;;27.38;27.39;95621.75;6281228;22;20152;-82
2023/06/03 05:37:32;;;;;;;8.50;4.00;;;;;;;27.72;26.25;95618.09;6281274;22;20558;-83
2023/06/03 05:39:58;;;;;;;8.90;3.70;;;;;;;27.26;26.83;95618.44;6311192;22;20201;-82
2023/06/03 05:42:23;;;;;;;9.57;4.13;;;;;;;25.32;29.47;95619.25;6284740;22;20217;-82
2023/06/03 05:44:48;;;;;;;8.60;3.63;;;;;;;26.55;27.66;95628.22;6309906;22;20172;-80
2023/06/03 05:47:13;;;;;;;9.52;4.00;;;;;;;27.13;26.93;95624.19;6283747;22;20191;-81
2023/06/03 05:49:39;;;;;;;6.18;3.60;;;;;;;27.25;27.43;95619.50;6281843;22;20160;-81
2023/06/03 05:52:04;;;;;;;11.50;3.85;;;;;;;27.09;27.45;95623.03;6283425;22;20172;-81
2023/06/03 05:54:30;;;;;;;6.38;3.67;;;;;;;27.57;26.69;95618.75;6309141;22;20186;-82
2023/06/03 05:56:56;;;;;;;11.95;4.28;;;;;;;26.73;27.51;95619.91;6309982;22;20148;-82
2023/06/03 05:59:22;;;;;;;8.10;4.03;;;;;;;27.01;27.51;95621.59;6310786;22;20489;-82
2023/06/03 06:01:47;;;;;;;7.75;3.72;;;;;;;26.60;28.07;95620.28;6283649;22;20155;-82
2023/06/03 06:04:12;;;;;;;8.15;4.10;;;;;;;27.14;26.76;95628.44;6284138;22;20152;-80
2023/06/03 06:06:38;;;;;;;10.13;3.78;;;;;;;27.38;27.00;95611.09;6284188;22;20696;-82
2023/06/03 06:09:03;;;;;;;11.40;4.88;;;;;;;27.63;26.25;95617.72;6280956;22;20191;-80
2023/06/03 06:11:28;;;;;;;7.70;3.47;;;;;;;27.22;26.36;95617.34;6280575;22;20471;-80
2023/06/03 06:13:54;;;;;;;16.63;10.05;;;;;;;26.84;27.29;95620.84;6280845;22;20179;-82
2023/06/03 06:16:19;;;;;;;8.45;4.47;;;;;;;26.03;28.14;95617.84;6280239;22;20148;-81
2023/06/03 06:18:44;;;;;;;8.32;3.63;;;;;;;25.98;28.61;95625.75;6259219;22;20152;-80
2023/06/03 06:21:09;;;;;;;9.98;3.88;;;;;;;26.14;28.30;95618.78;6313232;22;20174;-81
2023/06/03 06:23:35;;;;;;;8.27;3.75;;;;;;;26.00;29.02;95618.34;6285603;22;20178;-81
2023/06/03 06:26:00;;;;;;;7.55;4.15;;;;;;;25.66;29.64;95626.25;6311500;22;20155;-80
2023/06/03 06:28:26;;;;;;;7.60;3.70;;;;;;;26.65;28.33;95628.34;6286238;22;20203;-81
2023/06/03 06:30:53;;;;;;;9.00;4.18;;;;;;;27.96;26.66;95627.41;6262089;22;20156;-81
2023/06/03 06:33:18;;;;;;;6.57;3.20;;;;;;;27.08;27.99;95634.78;6315729;22;20172;-80
2023/06/03 06:35:44;;;;;;;10.05;4.35;;;;;;;27.05;27.69;95632.59;6313483;22;20234;-78
2023/06/03 06:38:10;;;;;;;12.00;4.90;;;;;;;26.94;27.07;95630.81;6286194;22;20190;-83
2023/06/03 06:40:38;;;;;;;9.35;4.00;;;;;;;27.17;27.72;95637.81;6309622;22;20159;-82
2023/06/03 06:43:05;;;;;;;7.30;4.53;;;;;;;26.88;27.96;95637.16;6282323;22;20175;-84
2023/06/03 06:45:33;;;;;;;12.75;4.18;;;;;;;25.96;29.91;95625.16;6280851;22;20152;-83
2023/06/03 06:48:06;;;;;;;9.45;4.20;;;;;;;27.00;28.27;95632.50;6307553;22;20171;-84
2023/06/03 06:50:48;;;;;;;9.20;3.95;;;;;;;27.21;28.27;95637.06;6280601;22;20515;-81
2023/06/03 06:53:14;;;;;;;9.60;3.67;;;;;;;27.75;27.00;95629.09;6308585;22;20241;-82
2023/06/03 06:55:50;;;;;;;9.38;3.92;;;;;;;27.76;26.86;95633.38;6280887;22;20234;-82
2023/06/03 06:58:16;;;;;;;11.35;4.13;;;;;;;26.29;28.91;95632.34;6309047;22;20222;-81
2023/06/03 07:00:42;;;;;;;12.35;4.55;;;;;;;26.63;28.67;95627.78;6281552;22;20155;-82
2023/06/03 07:03:12;;;;;;;7.32;3.83;;;;;;;26.07;29.98;95624.31;6281853;22;20172;-83
2023/06/03 07:05:37;;;;;;;7.00;3.80;;;;;;;27.30;28.73;95630.22;6282093;22;20183;-83
2023/06/03 07:08:03;;;;;;;7.53;3.72;;;;;;;28.09;27.32;95626.94;6280524;22;20190;-83
2023/06/03 07:10:29;;;;;;;10.15;4.28;;;;;;;27.20;28.35;95629.28;6269494;22;20223;-81
2023/06/03 07:12:55;;;;;;;10.65;4.57;;;;;;;27.07;28.27;95636.63;6327466;22;20168;-82
2023/06/03 07:15:24;;;;;;;7.78;4.20;;;;;;;26.47;29.49;95626.78;6329040;22;20151;-82
2023/06/03 07:17:53;;;;;;;11.00;4.10;;;;;;;27.16;28.46;95634.31;6301522;22;20152;-82
2023/06/03 07:20:20;;;;;;;11.10;4.30;;;;;;;27.02;28.64;95633.84;6291710;22;20160;-80
2023/06/03 07:22:46;;;;;;;9.40;4.32;;;;;;;26.85;28.40;95634.97;6271264;22;20173;-79
2023/06/03 07:25:28;;;;;;;7.63;4.35;;;;;;;26.21;30.08;95628.22;6326737;22;20204;-81
2023/06/03 07:27:54;;;;;;;11.48;4.45;;;;;;;25.66;30.95;95626.25;6301397;22;21992;-80
2023/06/03 07:30:19;;;;;;;7.13;4.78;;;;;;;26.07;30.69;95640.25;6278073;22;20218;-80
2023/06/03 07:32:44;;;;;;;11.30;4.60;;;;;;;25.41;31.33;95631.13;6278384;22;20180;-82
2023/06/03 07:35:13;;;;;;;8.00;4.22;;;;;;;25.08;31.78;95643.25;6303923;22;20167;-81
2023/06/03 07:37:38;;;;;;;11.63;4.82;;;;;;;23.96;33.16;95643.44;6273503;22;20192;-81
2023/06/03 07:40:12;;;;;;;9.90;5.28;;;;;;;23.37;34.74;95629.19;6301520;22;20160;-81
2023/06/03 07:42:39;;;;;;;10.50;4.63;;;;;;;24.28;33.76;95635.94;6276569;22;20178;-80
2023/06/03 07:45:05;;;;;;;7.07;4.93;;;;;;;24.04;34.15;95642.28;6300128;22;20163;-80
2023/06/03 07:47:30;;;;;;;10.60;4.85;;;;;;;25.02;32.29;95644.22;6277328;22;20159;-82
2023/06/03 07:49:58;;;;;;;8.57;5.10;;;;;;;23.94;34.78;95644.69;6303406;22;20263;-83
2023/06/03 07:52:23;;;;;;;10.52;5.43;;;;;;;23.80;33.90;95641.44;6278757;22;20176;-83
2023/06/03 07:54:49;;;;;;;15.90;5.43;;;;;;;23.99;33.80;95645.63;6276493;22;20152;-82
2023/06/03 07:57:14;;;;;;;15.68;6.32;;;;;;;24.47;33.92;95646.47;6274078;22;20239;-80
2023/06/03 07:59:55;;;;;;;7.43;5.35;;;;;;;24.59;32.68;95649.94;6300616;22;20183;-82
2023/06/03 08:02:21;;;;;;;8.65;5.20;;;;;;;23.03;35.63;95651.84;6274946;22;20179;-81
2023/06/03 08:04:46;;;;;;;13.88;5.10;;;;;;;23.49;34.58;95646.97;6300167;22;20157;-85
2023/06/03 08:07:13;;;;;;;7.75;5.30;;;;;;;22.73;36.29;95654.41;6276504;22;20605;-82
2023/06/03 08:09:40;;;;;;;12.23;5.43;;;;;;;22.86;36.44;95658.78;6305234;22;20232;-84
2023/06/03 08:12:07;;;;;;;11.95;5.53;;;;;;;23.14;36.42;95652.94;6278921;22;20169;-83
2023/06/03 08:14:34;;;;;;;34.97;13.80;;;;;;;23.58;36.28;95654.38;6279124;22;20521;-83
2023/06/03 08:17:13;;;;;;;15.43;7.18;;;;;;;23.52;36.06;95651.84;6255009;22;20238;-83
2023/06/03 08:19:39;;;;;;;11.63;5.43;;;;;;;23.89;35.53;95648.03;6284549;22;20236;-83
2023/06/03 08:22:30;;;;;;;10.30;5.63;;;;;;;22.15;37.28;95664.56;6285377;22;20222;-83
2023/06/03 08:24:55;;;;;;;10.60;6.35;;;;;;;21.92;37.94;95663.28;6286202;22;20213;-82
2023/06/03 08:27:20;;;;;;;11.18;6.45;;;;;;;21.05;39.51;95658.72;6259861;22;20152;-81
2023/06/03 08:29:46;;;;;;;14.60;6.13;;;;;;;20.10;42.86;95663.56;6286316;22;20183;-82
2023/06/03 08:32:11;;;;;;;8.20;5.85;;;;;;;19.92;43.13;95658.91;6312875;22;20272;-81
2023/06/03 08:34:36;;;;;;;12.73;6.05;;;;;;;20.63;41.99;95661.69;6313347;22;20156;-83
2023/06/03 08:37:03;;;;;;;11.18;6.40;;;;;;;21.04;42.61;95663.19;6285394;22;20145;-82
2023/06/03 08:39:28;;;;;;;10.07;6.25;;;;;;;20.73;41.32;95669.16;6285354;22;20234;-83
2023/06/03 08:41:54;;;;;;;9.25;5.25;;;;;;;20.29;42.22;95667.19;6285001;22;20152;-81
2023/06/03 08:44:44;;;;;;;12.85;6.45;;;;;;;20.19;43.39;95666.81;6285369;22;20202;-82
2023/06/03 08:47:17;;;;;;;14.55;7.70;;;;;;;19.49;44.57;95667.16;6283969;22;20189;-83
2023/06/03 08:49:59;;;;;;;14.43;7.78;;;;;;;19.35;44.63;95668.16;6283168;22;20175;-82
2023/06/03 08:52:26;;;;;;;8.88;5.40;;;;;;;20.22;43.74;95669.03;6312131;22;20193;-81
2023/06/03 08:54:55;;;;;;;8.48;5.57;;;;;;;20.65;44.15;95662.28;6286142;22;20151;-83
2023/06/03 08:57:21;;;;;;;15.90;6.25;;;;;;;21.00;42.25;95677.81;6273617;22;20278;-82
2023/06/03 08:59:47;;;;;;;14.15;6.40;;;;;;;21.23;41.61;95669.38;6250787;22;20522;-80
2023/06/03 09:02:12;;;;;;;17.33;7.63;;;;;;;21.22;42.15;95662.50;6223902;23;20173;-80
2023/06/03 09:04:38;;;;;;;13.32;6.60;;;;;;;21.31;41.12;95673.66;6198745;23;20157;-81
2023/06/03 09:07:05;;;;;;;9.40;6.70;;;;;;;21.67;41.60;95671.19;6223313;23;20233;-81
2023/06/03 09:09:30;;;;;;;14.50;6.20;;;;;;;21.68;40.86;95675.47;6223296;23;20176;-81
2023/06/03 09:11:56;;;;;;;10.90;5.95;;;;;;;22.18;41.38;95688.75;6223376;23;20157;-81
2023/06/03 09:14:21;;;;;;;10.63;5.68;;;;;;;22.04;41.07;95676.63;6197112;23;20196;-81
2023/06/03 09:16:47;;;;;;;8.95;5.78;;;;;;;22.67;39.67;95687.06;6249406;23;20583;-80
2023/06/03 09:19:13;;;;;;;12.15;5.38;;;;;;;23.06;38.73;95679.75;6222533;23;20169;-80
2023/06/03 09:21:42;;;;;;;11.25;5.80;;;;;;;23.32;37.30;95678.59;6249593;22;20149;-81
2023/06/03 09:24:09;;;;;;;15.93;6.22;;;;;;;22.69;41.20;95681.53;6223365;22;20179;-81
2023/06/03 09:26:34;;;;;;;10.18;5.95;;;;;;;22.70;40.09;95678.66;6272646;22;20153;-82
2023/06/03 09:28:59;;;;;;;12.80;6.00;;;;;;;23.09;38.16;95680.09;6273860;22;20676;-84
2023/06/03 09:31:28;;;;;;;8.90;6.20;;;;;;;22.67;38.67;95679.13;6224886;23;20212;-82
2023/06/03 09:33:53;;;;;;;10.82;6.20;;;;;;;22.33;39.36;95680.47;6224480;23;20173;-82
2023/06/03 09:36:18;;;;;;;10.07;5.63;;;;;;;22.24;39.00;95681.75;6222838;23;20488;-82
2023/06/03 09:38:52;;;;;;;11.52;6.10;;;;;;;21.83;40.82;95674.34;6197915;23;20153;-83
2023/06/03 09:41:21;;;;;;;8.98;6.18;;;;;;;21.79;41.00;95676.59;6223044;23;20172;-80
2023/06/03 09:44:05;;;;;;;18.02;6.53;;;;;;;22.30;40.30;95675.63;6222337;23;20665;-80
2023/06/03 09:46:34;;;;;;;7.55;5.25;;;;;;;22.59;40.01;95677.56;6227922;23;20165;-80
2023/06/03 09:49:14;;;;;;;8.85;5.88;;;;;;;22.44;41.22;95677.13;6225094;23;20180;-82
2023/06/03 09:51:46;;;;;;;11.75;6.22;;;;;;;22.66;39.62;95672.22;6222427;23;20200;-79
2023/06/03 09:54:23;;;;;;;12.05;6.05;;;;;;;21.55;41.84;95672.88;6220833;23;20650;-82
2023/06/03 09:56:48;;;;;;;10.32;6.40;;;;;;;21.44;42.08;95673.56;6222284;23;20138;-79
2023/06/03 09:59:16;;;;;;;9.38;6.13;;;;;;;21.44;41.12;95663.00;6249334;23;20232;-81
2023/06/03 10:01:42;;;;;;;10.85;6.25;;;;;;;21.42;42.54;95672.97;6251228;22;20184;-81
2023/06/03 10:04:08;;;;;;;8.65;5.75;;;;;;;21.32;42.72;95667.34;6224780;23;20153;-81
2023/06/03 10:06:38;;;;;;;13.88;6.60;;;;;;;21.31;41.62;95668.38;6249180;23;20175;-81
2023/06/03 10:09:21;;;;;;;10.63;6.38;;;;;;;21.56;41.33;95671.88;6223620;23;20174;-81
2023/06/03 10:11:51;;;;;;;10.57;5.68;;;;;;;21.38;42.19;95671.75;6248250;22;20142;-81
2023/06/03 10:14:27;;;;;;;10.13;6.13;;;;;;;21.28;42.82;95674.06;6220755;23;20211;-83
2023/06/03 10:17:09;;;;;;;7.90;5.55;;;;;;;22.33;41.69;95670.69;6246670;23;20137;-82
2023/06/03 10:19:42;;;;;;;9.25;5.70;;;;;;;22.51;39.70;95677.03;6236624;23;20645;-82
2023/06/03 10:22:11;;;;;;;8.90;6.15;;;;;;;22.85;39.62;95670.41;6190444;23;20177;-82
2023/06/03 10:24:42;;;;;;;9.75;6.07;;;;;;;22.29;40.07;95676.66;6166556;23;20166;-82
2023/06/03 10:27:09;;;;;;;13.57;6.47;;;;;;;21.88;40.73;95666.56;6237611;23;20184;-83
2023/06/03 10:29:34;;;;;;;9.30;5.50;;;;;;;22.13;41.11;95671.91;6189386;23;20185;-82
2023/06/03 10:32:01;;;;;;;9.07;6.10;;;;;;;22.83;39.88;95667.94;6241733;22;20576;-82
2023/06/03 10:34:31;;;;;;;8.13;5.70;;;;;;;21.68;41.06;95661.44;6217603;23;20150;-82
2023/06/03 10:37:02;;;;;;;11.38;6.18;;;;;;;22.00;40.65;95667.50;6193048;23;20150;-82
2023/06/03 10:39:29;;;;;;;9.43;5.90;;;;;;;21.33;42.16;95668.97;6194560;23;20149;-83
2023/06/03 10:42:12;;;;;;;9.88;5.88;;;;;;;21.79;41.69;95668.66;6193311;23;20161;-81
2023/06/03 10:44:38;;;;;;;9.93;5.40;;;;;;;21.47;41.87;95660.75;6218799;23;20142;-82
2023/06/03 10:47:25;;;;;;;12.70;6.55;;;;;;;21.04;42.70;95676.38;6217684;23;20689;-83
2023/06/03 10:49:56;;;;;;;12.70;5.95;;;;;;;21.65;42.97;95664.50;6216362;23;20182;-83
2023/06/03 10:52:47;;;;;;;7.50;5.70;;;;;;;22.35;42.92;95667.81;6217317;23;20248;-83
2023/06/03 10:55:25;;;;;;;10.90;5.82;;;;;;;22.43;41.57;95661.44;6217570;23;20173;-83
2023/06/03 10:57:59;;;;;;;9.98;6.18;;;;;;;22.09;41.84;95668.09;6216357;23;20142;-83
2023/06/03 11:00:59;;;;;;;9.15;5.70;;;;;;;21.97;41.99;95667.91;6190604;23;20197;-83
2023/06/03 11:03:27;;;;;;;12.43;5.85;;;;;;;22.87;40.55;95671.78;6219046;23;20248;-83
2023/06/03 11:05:53;;;;;;;11.10;6.22;;;;;;;23.10;39.01;95665.81;6216663;23;20158;-85
2023/06/03 11:08:57;;;;;;;8.77;6.25;;;;;;;22.37;40.79;95664.97;6191912;23;20174;-83
2023/06/03 11:11:43;;;;;;;11.45;6.40;;;;;;;22.32;40.87;95678.84;6191544;23;20276;-85
2023/06/03 11:14:30;;;;;;;9.43;5.68;;;;;;;22.46;40.02;95674.25;6218551;22;20523;-83
2023/06/03 11:16:58;;;;;;;10.73;6.70;;;;;;;22.51;40.60;95663.81;6202769;23;20165;-85
2023/06/03 11:19:31;;;;;;;12.80;6.38;;;;;;;22.97;40.61;95665.16;6219592;23;20196;-83
2023/06/03 11:21:57;;;;;;;9.68;5.82;;;;;;;22.93;40.50;95666.66;6219109;23;20464;-84
2023/06/03 11:24:38;;;;;;;11.23;6.40;;;;;;;23.50;40.16;95669.78;6191753;23;20169;-85
2023/06/03 11:27:12;;;;;;;11.95;5.85;;;;;;;23.40;39.91;95665.81;6216595;23;20150;-85
2023/06/03 11:29:47;;;;;;;9.00;6.30;;;;;;;23.08;40.11;95661.78;6216671;23;20178;-82
2023/06/03 11:32:27;;;;;;;8.55;5.47;;;;;;;23.55;39.71;95657.47;6216902;23;20199;-81
2023/06/03 11:35:28;;;;;;;8.80;5.97;;;;;;;23.35;39.76;95652.47;6189144;23;20146;-79